Time;durP1;ratioP1;P1;durP2;ratioP2;P2;SDS_P1;SDS_P2;PMS_P1;PMS_P2;Temp;Humidity;BMP_temperature;BMP_pressure;BME280_temperature;BME280_humidity;BME280_pressure;Samples;Min_cycle;Max_cycle;Signal;HPM_P1;HPM_P2
2021/08/04 00:00:42;;;;;;;4.53;3.13;;;15.70;99.90;;;;;;5014920;28;20277;-77
2021/08/04 00:03:08;;;;;;;4.60;3.30;;;15.70;99.90;;;;;;5048377;28;20557;-77
2021/08/04 00:05:33;;;;;;;4.00;3.33;;;15.70;99.90;;;;;;5032733;28;20561;-77
2021/08/04 00:07:59;;;;;;;6.97;3.40;;;15.70;99.90;;;;;;5032824;28;20182;-77
2021/08/04 00:10:24;;;;;;;4.33;3.03;;;15.80;99.90;;;;;;5031052;28;20314;-77
2021/08/04 00:12:50;;;;;;;7.30;3.40;;;15.70;99.90;;;;;;5031407;28;20190;-77
2021/08/04 00:15:16;;;;;;;5.90;3.40;;;15.70;99.90;;;;;;5031445;28;20309;-77
2021/08/04 00:17:42;;;;;;;6.00;3.73;;;15.80;99.90;;;;;;5048036;28;20219;-77
2021/08/04 00:20:08;;;;;;;5.63;3.43;;;15.80;99.90;;;;;;5030847;28;20250;-77
2021/08/04 00:22:34;;;;;;;4.43;3.37;;;15.70;99.90;;;;;;5014674;28;20186;-77
2021/08/04 00:24:59;;;;;;;4.83;3.50;;;15.70;99.90;;;;;;5031206;28;20209;-77
2021/08/04 00:27:27;;;;;;;3.53;3.20;;;15.70;99.90;;;;;;5047795;28;20185;-77
2021/08/04 00:29:56;;;;;;;5.50;3.30;;;15.70;99.90;;;;;;5047219;28;20234;-77
2021/08/04 00:32:22;;;;;;;4.37;3.33;;;15.70;99.90;;;;;;5031078;28;20179;-77
2021/08/04 00:34:48;;;;;;;4.63;3.40;;;15.60;99.90;;;;;;5047761;28;20225;-77
2021/08/04 00:37:13;;;;;;;3.97;3.50;;;15.60;99.90;;;;;;5031412;28;20198;-76
2021/08/04 00:39:39;;;;;;;4.57;3.27;;;15.60;99.90;;;;;;5014709;28;20195;-76
2021/08/04 00:42:05;;;;;;;4.63;3.90;;;15.60;99.90;;;;;;5014894;28;20552;-76
2021/08/04 00:44:30;;;;;;;4.73;3.63;;;15.60;99.90;;;;;;5047727;28;20628;-76
2021/08/04 00:46:56;;;;;;;4.97;3.77;;;15.60;99.90;;;;;;5047888;28;20214;-75
2021/08/04 00:49:21;;;;;;;4.90;3.10;;;15.60;99.90;;;;;;5031119;28;20207;-77
2021/08/04 00:51:47;;;;;;;7.10;3.63;;;15.60;99.90;;;;;;5031236;28;20245;-76
2021/08/04 00:54:13;;;;;;;5.40;3.50;;;15.60;99.90;;;;;;5014981;28;20209;-76
2021/08/04 00:56:38;;;;;;;4.00;3.27;;;15.60;99.90;;;;;;5015026;28;20217;-76
2021/08/04 00:59:04;;;;;;;4.13;3.20;;;15.60;99.90;;;;;;5047714;28;20199;-76
2021/08/04 01:01:40;;;;;;;6.30;3.60;;;15.60;99.90;;;;;;5032002;28;20186;-76
2021/08/04 01:04:22;;;;;;;4.93;3.20;;;15.60;99.90;;;;;;5014767;28;20182;-76
2021/08/04 01:06:52;;;;;;;5.60;3.57;;;15.60;99.90;;;;;;5031088;28;20181;-76
2021/08/04 01:09:19;;;;;;;4.40;3.47;;;15.60;99.90;;;;;;5047467;28;20206;-77
2021/08/04 01:11:47;;;;;;;4.20;3.40;;;15.60;99.90;;;;;;5031242;28;20210;-76
2021/08/04 01:14:13;;;;;;;4.67;3.23;;;15.60;99.90;;;;;;5031081;28;20187;-77
2021/08/04 01:16:40;;;;;;;3.30;3.00;;;15.60;99.90;;;;;;5030411;28;20178;-77
2021/08/04 01:19:14;;;;;;;4.07;3.27;;;15.60;99.90;;;;;;5030202;28;20299;-77
2021/08/04 01:22:15;;;;;;;3.80;3.40;;;15.60;99.90;;;;;;5047254;28;20262;-77
2021/08/04 01:25:13;;;;;;;3.83;3.50;;;15.60;99.90;;;;;;5029150;28;20618;-77
2021/08/04 01:27:50;;;;;;;6.57;3.67;;;15.50;99.90;;;;;;5032210;28;20539;-76
2021/08/04 01:30:16;;;;;;;4.30;3.23;;;15.50;99.90;;;;;;5031123;28;20677;-76
2021/08/04 01:32:42;;;;;;;4.20;3.40;;;15.50;99.90;;;;;;5034728;28;20229;-76
2021/08/04 01:35:07;;;;;;;4.70;3.17;;;15.50;99.90;;;;;;5036409;28;20592;-76
2021/08/04 01:37:34;;;;;;;4.80;3.67;;;15.50;99.90;;;;;;5051631;28;20171;-76
2021/08/04 01:40:00;;;;;;;5.37;3.20;;;15.50;99.90;;;;;;5034908;28;20244;-77
2021/08/04 01:42:26;;;;;;;3.90;3.30;;;15.50;99.90;;;;;;5034705;28;20183;-77
2021/08/04 01:44:51;;;;;;;3.63;3.03;;;15.50;99.90;;;;;;5034260;28;20655;-77
2021/08/04 01:47:17;;;;;;;5.50;3.40;;;15.50;99.90;;;;;;5034715;28;20194;-76
2021/08/04 01:49:42;;;;;;;4.67;3.40;;;15.50;99.90;;;;;;5034672;28;20202;-76
2021/08/04 01:52:08;;;;;;;5.70;3.47;;;15.50;99.90;;;;;;5034863;28;20263;-76
2021/08/04 01:54:34;;;;;;;4.43;3.90;;;15.50;99.90;;;;;;5034705;28;20173;-76
2021/08/04 01:56:59;;;;;;;6.93;3.80;;;15.50;99.90;;;;;;5018089;28;20280;-76
2021/08/04 01:59:25;;;;;;;5.47;3.80;;;15.50;99.90;;;;;;5017591;28;20275;-76
2021/08/04 02:01:51;;;;;;;6.33;3.70;;;15.50;99.90;;;;;;5034135;28;20179;-76
2021/08/04 02:04:17;;;;;;;6.87;3.97;;;15.50;99.90;;;;;;5051142;28;20189;-76
2021/08/04 02:06:51;;;;;;;5.40;3.90;;;15.50;99.90;;;;;;5034711;28;20194;-76
2021/08/04 02:09:37;;;;;;;7.00;4.40;;;15.50;99.90;;;;;;5034177;28;20195;-76
2021/08/04 02:12:04;;;;;;;4.47;4.03;;;15.60;99.90;;;;;;5028886;28;20179;-76
2021/08/04 02:14:51;;;;;;;5.80;4.40;;;15.60;99.90;;;;;;5027541;28;20187;-76
2021/08/04 02:17:16;;;;;;;4.70;3.87;;;15.60;99.90;;;;;;5015022;28;20178;-76
2021/08/04 02:19:43;;;;;;;7.13;4.20;;;15.60;99.90;;;;;;5033788;28;20220;-76
2021/08/04 02:22:15;;;;;;;4.80;4.30;;;15.60;99.90;;;;;;5024259;28;20176;-76
2021/08/04 02:24:44;;;;;;;6.67;4.13;;;15.50;99.90;;;;;;4998386;28;20549;-76
2021/08/04 02:27:10;;;;;;;5.77;4.37;;;15.60;99.90;;;;;;4998475;28;20171;-76
2021/08/04 02:29:37;;;;;;;5.73;4.50;;;15.60;99.90;;;;;;4997721;28;20589;-76
2021/08/04 02:32:03;;;;;;;5.40;4.30;;;15.60;99.90;;;;;;5014197;28;20216;-76
2021/08/04 02:34:28;;;;;;;4.70;3.90;;;15.60;99.90;;;;;;5034090;28;20228;-76
2021/08/04 02:36:54;;;;;;;4.83;4.20;;;15.60;99.90;;;;;;5017441;28;20179;-76
2021/08/04 02:39:20;;;;;;;4.70;3.80;;;15.70;99.90;;;;;;5033491;28;20198;-76
2021/08/04 02:41:46;;;;;;;6.13;4.30;;;15.70;99.90;;;;;;5032828;28;20642;-76
2021/08/04 02:44:15;;;;;;;6.17;4.20;;;15.60;99.90;;;;;;5016873;28;20183;-76
2021/08/04 02:46:42;;;;;;;4.50;4.07;;;15.60;99.90;;;;;;5049710;28;20171;-76
2021/08/04 02:49:07;;;;;;;6.00;4.00;;;15.70;99.90;;;;;;5033332;28;20190;-76
2021/08/04 02:51:33;;;;;;;4.27;3.50;;;15.70;99.90;;;;;;5033487;28;20561;-76
2021/08/04 02:53:58;;;;;;;4.17;3.77;;;15.60;99.90;;;;;;5033621;28;20571;-76
2021/08/04 02:56:24;;;;;;;6.63;4.00;;;15.60;99.90;;;;;;5050329;28;20171;-76
2021/08/04 02:58:50;;;;;;;6.23;4.37;;;15.60;99.90;;;;;;5032900;28;20257;-76
2021/08/04 03:01:16;;;;;;;4.50;4.10;;;15.60;99.90;;;;;;5033327;28;20179;-74
2021/08/04 03:03:41;;;;;;;6.87;4.50;;;15.50;99.90;;;;;;5033381;28;20171;-75
2021/08/04 03:06:07;;;;;;;5.83;4.60;;;15.50;99.90;;;;;;5016989;28;20175;-75
2021/08/04 03:08:32;;;;;;;7.13;4.43;;;15.60;99.90;;;;;;5049525;28;20232;-75
2021/08/04 03:10:58;;;;;;;4.53;4.13;;;15.50;99.90;;;;;;5049664;28;20256;-74
2021/08/04 03:13:24;;;;;;;4.67;4.27;;;15.50;99.90;;;;;;5049686;28;20266;-75
2021/08/04 03:15:49;;;;;;;6.53;4.40;;;15.60;99.90;;;;;;5016316;28;20241;-74
2021/08/04 03:18:15;;;;;;;5.93;4.43;;;15.50;99.90;;;;;;5033189;28;20630;-75
2021/08/04 03:20:41;;;;;;;6.83;4.30;;;15.50;99.90;;;;;;5033490;28;20213;-75
2021/08/04 03:23:07;;;;;;;5.83;4.30;;;15.50;99.90;;;;;;5049443;28;20170;-75
2021/08/04 03:25:32;;;;;;;4.10;3.70;;;15.50;99.90;;;;;;5049507;28;20261;-75
2021/08/04 03:27:58;;;;;;;5.43;4.30;;;15.50;99.90;;;;;;5032929;28;20209;-75
2021/08/04 03:30:23;;;;;;;4.70;4.13;;;15.50;99.90;;;;;;5049125;28;20207;-75
2021/08/04 03:32:49;;;;;;;5.13;4.33;;;15.50;99.90;;;;;;5016411;28;20171;-75
2021/08/04 03:35:14;;;;;;;5.00;4.43;;;15.50;99.90;;;;;;5032835;28;20206;-74
2021/08/04 03:37:41;;;;;;;6.63;4.17;;;15.50;99.90;;;;;;5049385;28;20566;-74
2021/08/04 03:40:08;;;;;;;5.70;4.40;;;15.50;99.90;;;;;;5032178;28;20198;-75
2021/08/04 03:42:34;;;;;;;6.40;4.00;;;15.50;99.90;;;;;;5032747;28;20186;-74
2021/08/04 03:44:59;;;;;;;4.63;4.13;;;15.50;99.90;;;;;;5048856;28;20549;-74
2021/08/04 03:47:25;;;;;;;4.90;4.40;;;15.40;99.90;;;;;;5048928;28;20182;-74
2021/08/04 03:49:50;;;;;;;4.93;4.10;;;15.40;99.90;;;;;;5048595;28;20199;-74
2021/08/04 03:52:16;;;;;;;5.67;3.90;;;15.40;99.90;;;;;;5049116;28;20631;-75
2021/08/04 03:54:42;;;;;;;6.30;4.17;;;15.40;99.90;;;;;;5015287;28;20254;-74
2021/08/04 03:57:07;;;;;;;5.00;4.27;;;15.30;99.90;;;;;;5001140;28;20184;-74
2021/08/04 03:59:33;;;;;;;5.43;4.70;;;15.30;99.90;;;;;;5012164;28;20203;-74
2021/08/04 04:01:58;;;;;;;5.70;4.30;;;15.30;99.90;;;;;;5011492;28;20183;-74
2021/08/04 04:04:24;;;;;;;5.60;3.93;;;15.30;99.90;;;;;;5032147;28;20183;-75
2021/08/04 04:06:49;;;;;;;6.07;4.60;;;15.20;99.90;;;;;;5048344;28;20187;-75
2021/08/04 04:09:15;;;;;;;6.73;4.13;;;15.20;99.90;;;;;;5032259;28;20260;-74
2021/08/04 04:11:40;;;;;;;7.60;4.50;;;15.20;99.90;;;;;;5035048;28;20206;-74
2021/08/04 04:14:06;;;;;;;4.73;4.23;;;15.10;99.90;;;;;;5014933;28;20652;-75
2021/08/04 04:16:32;;;;;;;11.10;4.03;;;15.10;99.90;;;;;;4996773;28;20644;-75
2021/08/04 04:18:57;;;;;;;6.60;4.53;;;15.10;99.90;;;;;;4996005;28;20215;-74
2021/08/04 04:21:23;;;;;;;5.10;4.10;;;15.10;99.90;;;;;;4996157;28;20719;-74
2021/08/04 04:23:48;;;;;;;4.53;4.07;;;15.00;99.90;;;;;;5013552;28;20180;-75
2021/08/04 04:26:14;;;;;;;5.43;4.10;;;15.00;99.90;;;;;;4979622;28;20184;-74
2021/08/04 04:28:39;;;;;;;4.47;4.07;;;15.00;99.90;;;;;;4995859;28;20283;-75
2021/08/04 04:31:05;;;;;;;4.80;4.30;;;15.00;99.90;;;;;;4979490;28;20591;-75
2021/08/04 04:33:31;;;;;;;5.40;4.67;;;15.00;99.90;;;;;;4980182;28;20258;-74
2021/08/04 04:35:58;;;;;;;5.70;4.47;;;15.00;99.90;;;;;;5012135;28;20176;-75
2021/08/04 04:38:24;;;;;;;5.10;4.40;;;15.00;99.90;;;;;;5023217;28;20175;-75
2021/08/04 04:40:49;;;;;;;6.17;4.77;;;15.10;99.90;;;;;;5047972;28;20563;-81
2021/08/04 04:43:15;;;;;;;4.90;4.40;;;15.10;99.90;;;;;;5033916;28;20183;-79
2021/08/04 04:45:41;;;;;;;5.83;4.80;;;15.10;99.90;;;;;;5031784;28;20175;-80
2021/08/04 04:48:06;;;;;;;5.67;4.30;;;15.10;99.90;;;;;;5032094;28;20552;-80
2021/08/04 04:50:32;;;;;;;5.77;4.37;;;15.20;99.90;;;;;;5015411;28;20206;-79
2021/08/04 04:52:58;;;;;;;5.47;4.83;;;15.20;99.90;;;;;;5031706;28;20179;-79
2021/08/04 04:55:23;;;;;;;6.07;4.53;;;15.20;99.90;;;;;;5014812;28;20179;-79
2021/08/04 04:57:49;;;;;;;5.77;4.90;;;15.20;99.90;;;;;;5019612;28;20214;-79
2021/08/04 05:00:14;;;;;;;6.00;4.23;;;15.30;99.90;;;;;;4995011;28;20725;-80
2021/08/04 05:02:40;;;;;;;5.97;4.63;;;15.30;99.90;;;;;;4997973;28;20183;-79
2021/08/04 05:05:07;;;;;;;6.87;5.40;;;15.30;99.90;;;;;;4995278;28;20674;-79
2021/08/04 05:07:32;;;;;;;8.20;5.20;;;15.40;99.90;;;;;;4995952;28;20670;-79
2021/08/04 05:09:58;;;;;;;6.50;4.90;;;15.40;99.90;;;;;;4979671;28;20196;-75
2021/08/04 05:12:24;;;;;;;6.67;4.53;;;15.50;99.90;;;;;;4997121;28;20734;-75
2021/08/04 05:14:49;;;;;;;5.67;4.60;;;15.60;99.90;;;;;;4995373;28;20522;-75
2021/08/04 05:17:15;;;;;;;6.43;5.10;;;15.60;99.90;;;;;;4995325;28;20702;-74
2021/08/04 05:19:41;;;;;;;6.13;4.93;;;15.60;99.90;;;;;;4995973;28;20589;-75
2021/08/04 05:22:07;;;;;;;6.13;4.83;;;15.70;99.90;;;;;;4978971;28;20680;-75
2021/08/04 05:24:32;;;;;;;7.77;5.37;;;15.80;99.90;;;;;;4995077;28;20191;-75
2021/08/04 05:26:58;;;;;;;5.03;4.60;;;15.90;99.90;;;;;;5011297;28;20741;-75
2021/08/04 05:29:23;;;;;;;5.43;4.67;;;15.90;99.90;;;;;;4978581;28;20204;-75
2021/08/04 05:31:49;;;;;;;7.00;4.77;;;16.00;99.90;;;;;;4994749;28;20219;-74
2021/08/04 05:34:16;;;;;;;6.03;4.40;;;16.10;99.90;;;;;;4995292;28;20237;-75
2021/08/04 05:36:42;;;;;;;5.20;4.67;;;16.20;99.90;;;;;;5012654;28;20221;-74
2021/08/04 05:39:08;;;;;;;6.33;4.50;;;16.40;99.90;;;;;;5011202;28;20191;-74
2021/08/04 05:41:33;;;;;;;7.10;4.53;;;16.40;99.90;;;;;;4994884;28;20183;-75
2021/08/04 05:43:59;;;;;;;8.00;4.23;;;16.50;99.90;;;;;;5012391;28;20175;-75
2021/08/04 05:46:24;;;;;;;4.87;4.37;;;16.60;99.90;;;;;;4994807;28;20198;-75
2021/08/04 05:48:50;;;;;;;4.77;4.07;;;16.70;99.90;;;;;;5012321;28;20221;-75
2021/08/04 05:51:16;;;;;;;5.53;4.13;;;16.80;99.90;;;;;;5030904;28;20727;-75
2021/08/04 05:53:41;;;;;;;4.57;4.17;;;16.80;99.90;;;;;;5030953;28;20181;-74
2021/08/04 05:56:07;;;;;;;5.57;4.13;;;16.80;99.90;;;;;;5038394;28;20580;-74
2021/08/04 05:58:32;;;;;;;6.10;4.30;;;16.90;99.90;;;;;;5033934;28;20248;-75
2021/08/04 06:00:58;;;;;;;5.20;3.70;;;17.10;99.90;;;;;;5018765;28;20179;-74
2021/08/04 06:03:23;;;;;;;5.10;3.77;;;17.30;99.90;;;;;;5032946;28;20201;-75
2021/08/04 06:05:49;;;;;;;6.57;4.00;;;17.30;99.90;;;;;;5017395;28;20189;-75
2021/08/04 06:08:14;;;;;;;5.23;3.73;;;17.50;99.90;;;;;;5016505;28;20187;-75
2021/08/04 06:10:40;;;;;;;5.17;3.30;;;17.60;99.90;;;;;;5009230;28;20290;-76
2021/08/04 06:13:06;;;;;;;6.00;3.77;;;17.80;99.90;;;;;;5025468;28;20250;-77
2021/08/04 06:15:31;;;;;;;4.90;3.50;;;18.00;99.90;;;;;;5018549;28;20410;-80
2021/08/04 06:17:57;;;;;;;5.30;3.50;;;18.20;99.90;;;;;;5023761;28;20171;-81
2021/08/04 06:20:22;;;;;;;5.90;3.40;;;18.50;99.90;;;;;;5025833;28;20240;-81
2021/08/04 06:22:48;;;;;;;5.47;3.43;;;18.50;99.90;;;;;;5006184;28;20209;-81
2021/08/04 06:25:13;;;;;;;5.40;2.87;;;18.60;99.90;;;;;;5004156;28;20183;-82
2021/08/04 06:27:39;;;;;;;4.33;2.53;;;18.90;99.90;;;;;;5021771;28;20588;-83
2021/08/04 06:30:05;;;;;;;5.83;2.93;;;19.10;99.90;;;;;;5020039;28;20196;-82
2021/08/04 06:32:31;;;;;;;4.40;3.13;;;19.30;99.90;;;;;;5038223;28;20177;-84
2021/08/04 06:34:56;;;;;;;5.47;3.20;;;19.50;99.90;;;;;;5004388;28;20184;-79
2021/08/04 06:37:22;;;;;;;4.13;3.00;;;19.60;99.90;;;;;;5012686;28;20184;-80
2021/08/04 06:39:47;;;;;;;3.57;2.30;;;19.80;99.90;;;;;;5000928;28;20198;-80
2021/08/04 06:42:13;;;;;;;4.60;2.90;;;20.00;99.90;;;;;;5038193;28;20183;-80
2021/08/04 06:44:40;;;;;;;3.10;2.80;;;20.20;99.90;;;;;;5006947;28;20252;-81
2021/08/04 06:47:06;;;;;;;5.17;2.50;;;20.30;99.90;;;;;;5025189;28;20175;-80
2021/08/04 06:49:31;;;;;;;4.30;2.77;;;20.40;99.90;;;;;;5003810;28;20696;-79
2021/08/04 06:51:57;;;;;;;3.90;2.43;;;20.60;99.90;;;;;;5004890;28;20202;-81
2021/08/04 06:54:24;;;;;;;3.80;2.37;;;20.60;99.90;;;;;;5029820;28;20241;-81
2021/08/04 06:56:49;;;;;;;3.67;2.80;;;20.40;99.90;;;;;;5013101;28;20171;-83
2021/08/04 06:59:16;;;;;;;3.03;2.50;;;20.10;99.90;;;;;;5042390;28;20235;-83
2021/08/04 07:01:41;;;;;;;4.93;2.30;;;20.00;99.90;;;;;;5021581;28;20696;-75
2021/08/04 07:04:07;;;;;;;3.63;2.50;;;20.20;99.90;;;;;;5038032;28;20182;-79
2021/08/04 07:06:32;;;;;;;3.60;2.60;;;20.70;99.90;;;;;;5032617;28;20186;-81
2021/08/04 07:08:58;;;;;;;5.80;4.20;;;21.10;99.90;;;;;;5038820;28;20454;-81
2021/08/04 07:11:24;;;;;;;4.50;2.90;;;21.40;99.90;;;;;;5008595;28;20202;-81
2021/08/04 07:13:50;;;;;;;3.07;2.07;;;21.20;99.90;;;;;;5037747;28;20186;-77
2021/08/04 07:16:17;;;;;;;4.77;2.40;;;20.90;99.90;;;;;;5032625;28;20205;-77
2021/08/04 07:18:44;;;;;;;2.43;2.00;;;20.70;99.90;;;;;;5015081;28;20202;-77
2021/08/04 07:21:13;;;;;;;2.43;2.20;;;20.50;99.90;;;;;;5035859;28;20179;-76
2021/08/04 07:23:39;;;;;;;2.70;2.20;;;20.80;99.90;;;;;;5036794;28;20181;-76
2021/08/04 07:26:05;;;;;;;3.00;2.10;;;21.00;99.90;;;;;;5043048;28;20261;-76
2021/08/04 07:28:30;;;;;;;3.97;2.50;;;21.30;99.90;;;;;;5023395;28;20652;-76
2021/08/04 07:30:56;;;;;;;3.87;2.10;;;21.40;99.90;;;;;;5054349;28;20199;-76
2021/08/04 07:33:22;;;;;;;2.73;1.83;;;21.60;99.90;;;;;;5036447;28;20187;-76
2021/08/04 07:35:47;;;;;;;3.20;2.20;;;22.00;99.90;;;;;;5016192;28;20168;-76
2021/08/04 07:38:13;;;;;;;3.40;1.90;;;22.20;99.90;;;;;;5007503;28;20177;-76
2021/08/04 07:40:38;;;;;;;2.50;1.90;;;21.80;99.90;;;;;;5006189;28;20758;-76
2021/08/04 07:43:04;;;;;;;3.10;2.00;;;21.80;99.90;;;;;;5015264;28;20530;-76
2021/08/04 07:45:30;;;;;;;3.17;2.00;;;21.80;99.90;;;;;;5045190;28;20178;-76
2021/08/04 07:47:55;;;;;;;4.43;2.37;;;21.90;99.90;;;;;;5031158;28;20171;-76
2021/08/04 07:50:21;;;;;;;3.97;2.20;;;21.60;99.90;;;;;;5033622;28;20202;-76
2021/08/04 07:52:46;;;;;;;2.97;2.10;;;21.40;99.90;;;;;;5036879;28;20233;-76
2021/08/04 07:55:13;;;;;;;4.53;2.17;;;21.40;99.90;;;;;;5035215;28;20182;-76
2021/08/04 07:57:39;;;;;;;2.67;2.40;;;21.50;99.90;;;;;;5020278;28;20196;-76
2021/08/04 08:00:05;;;;;;;3.47;2.40;;;21.50;99.90;;;;;;5034893;28;20726;-76
2021/08/04 08:02:31;;;;;;;3.10;2.27;;;21.50;99.90;;;;;;5035349;28;20183;-76
2021/08/04 08:04:57;;;;;;;3.27;2.40;;;21.50;99.90;;;;;;5034223;28;20643;-77
2021/08/04 08:07:23;;;;;;;2.87;2.20;;;21.60;99.90;;;;;;5038554;28;20210;-76
2021/08/04 08:09:49;;;;;;;3.57;2.13;;;21.70;99.90;;;;;;5037315;28;20218;-76
2021/08/04 08:12:14;;;;;;;4.37;1.97;;;21.80;99.90;;;;;;5039069;28;20207;-76
2021/08/04 08:14:40;;;;;;;4.97;2.00;;;21.70;99.90;;;;;;5016282;28;20257;-78
2021/08/04 08:17:05;;;;;;;3.20;2.10;;;22.00;99.90;;;;;;5016536;28;20229;-76
2021/08/04 08:19:32;;;;;;;3.37;2.13;;;21.90;99.90;;;;;;5014520;28;20710;-77
2021/08/04 08:21:58;;;;;;;3.40;2.30;;;21.80;99.90;;;;;;5019989;28;20544;-75
2021/08/04 08:24:23;;;;;;;4.00;2.20;;;21.80;99.90;;;;;;5015878;28;20642;-81
2021/08/04 08:26:49;;;;;;;2.77;2.40;;;21.70;99.90;;;;;;5003298;28;20198;-78
2021/08/04 08:29:15;;;;;;;3.13;2.20;;;21.60;99.90;;;;;;4995927;28;20203;-76
2021/08/04 08:31:40;;;;;;;3.00;2.30;;;21.30;99.90;;;;;;5000115;28;20203;-76
2021/08/04 08:34:06;;;;;;;3.70;2.23;;;21.30;99.90;;;;;;4996628;28;20218;-77
2021/08/04 08:36:33;;;;;;;3.60;2.17;;;21.10;99.90;;;;;;4996353;28;20180;-76
2021/08/04 08:38:59;;;;;;;3.23;2.23;;;21.20;99.90;;;;;;5012172;28;20202;-76
2021/08/04 08:41:25;;;;;;;3.53;2.63;;;21.30;99.90;;;;;;4997252;28;20559;-76
2021/08/04 08:43:51;;;;;;;4.27;2.20;;;21.10;99.90;;;;;;5013660;28;20321;-76
2021/08/04 08:46:16;;;;;;;3.47;2.40;;;21.10;99.90;;;;;;4998970;28;20179;-76
2021/08/04 08:48:49;;;;;;;2.30;2.10;;;21.20;99.90;;;;;;5014423;28;20213;-76
2021/08/04 08:51:19;;;;;;;4.23;2.27;;;21.00;99.90;;;;;;4999960;28;20670;-80
2021/08/04 08:53:45;;;;;;;2.33;2.10;;;21.00;99.90;;;;;;5001065;28;20637;-81
2021/08/04 08:56:14;;;;;;;3.73;2.20;;;21.20;99.90;;;;;;5000304;28;20639;-81
2021/08/04 08:58:40;;;;;;;3.40;2.10;;;21.50;99.90;;;;;;5000568;28;20199;-82
2021/08/04 09:01:06;;;;;;;4.23;2.17;;;21.60;99.90;;;;;;5017007;28;20179;-82
2021/08/04 09:03:31;;;;;;;2.70;1.90;;;21.70;99.90;;;;;;5001680;28;20178;-81
2021/08/04 09:05:57;;;;;;;2.50;1.80;;;21.70;99.90;;;;;;5001526;28;20193;-81
2021/08/04 09:08:27;;;;;;;2.93;1.90;;;21.60;99.90;;;;;;5001803;28;20183;-81
2021/08/04 09:10:53;;;;;;;3.40;1.90;;;21.50;99.90;;;;;;5002380;28;20211;-81
2021/08/04 09:13:21;;;;;;;3.90;2.30;;;21.50;99.90;;;;;;5003230;28;20270;-81
2021/08/04 09:15:47;;;;;;;3.90;2.33;;;21.60;99.90;;;;;;5003251;28;20187;-81
2021/08/04 09:18:16;;;;;;;4.30;2.30;;;21.60;99.90;;;;;;5001821;28;20587;-81
2021/08/04 09:20:44;;;;;;;4.53;2.10;;;21.70;99.90;;;;;;5017379;28;20575;-81
2021/08/04 09:23:12;;;;;;;3.63;2.27;;;22.00;99.90;;;;;;5035818;28;20202;-82
2021/08/04 09:25:37;;;;;;;3.40;2.10;;;22.10;99.90;;;;;;5002892;28;20183;-81
2021/08/04 09:28:03;;;;;;;2.73;2.10;;;22.10;99.90;;;;;;5018758;28;20598;-81
2021/08/04 09:30:32;;;;;;;2.30;2.00;;;21.90;99.90;;;;;;5001809;28;20304;-81
2021/08/04 09:33:12;;;;;;;4.47;1.70;;;21.90;99.90;;;;;;5034894;28;20222;-80
2021/08/04 09:35:48;;;;;;;3.43;1.50;;;21.80;99.90;;;;;;5018900;28;20605;-81
2021/08/04 09:38:14;;;;;;;2.93;1.80;;;22.00;99.90;;;;;;5008526;28;20650;-81
2021/08/04 09:40:39;;;;;;;3.03;2.03;;;22.00;99.90;;;;;;5004326;28;20248;-81
2021/08/04 09:43:05;;;;;;;3.93;2.00;;;22.10;99.90;;;;;;5002127;28;20583;-81
2021/08/04 09:45:43;;;;;;;3.53;1.93;;;22.10;99.90;;;;;;5018216;28;20232;-82
2021/08/04 09:48:14;;;;;;;3.87;1.87;;;22.10;99.90;;;;;;5018274;28;20187;-83
2021/08/04 09:50:47;;;;;;;3.53;1.90;;;22.10;99.90;;;;;;5002314;28;20207;-81
2021/08/04 09:53:21;;;;;;;2.70;1.90;;;22.20;99.90;;;;;;5022512;28;20196;-82
2021/08/04 09:56:05;;;;;;;3.77;2.00;;;22.40;99.90;;;;;;5005796;28;20273;-81
2021/08/04 09:58:30;;;;;;;2.67;2.22;;;22.50;99.90;;;;;;5021591;28;20183;-81
2021/08/04 10:00:58;;;;;;;4.07;1.80;;;22.50;99.90;;;;;;5005835;28;20183;-81
2021/08/04 10:03:23;;;;;;;2.17;1.77;;;22.40;99.90;;;;;;5022406;28;20202;-81
2021/08/04 10:05:49;;;;;;;4.50;1.80;;;22.40;99.90;;;;;;5023105;28;20179;-80
2021/08/04 10:08:14;;;;;;;4.97;1.93;;;22.10;99.90;;;;;;5024630;28;20189;-81
2021/08/04 10:10:45;;;;;;;2.77;1.67;;;22.00;99.90;;;;;;5024204;28;20302;-78
2021/08/04 10:13:16;;;;;;;3.77;2.30;;;22.00;99.90;;;;;;5002094;28;20218;-77
2021/08/04 10:15:43;;;;;;;4.30;2.20;;;21.70;99.90;;;;;;5018255;28;20166;-77
2021/08/04 10:18:15;;;;;;;3.90;2.37;;;21.60;99.90;;;;;;5001587;28;20203;-77
2021/08/04 10:20:40;;;;;;;2.53;1.83;;;21.60;99.90;;;;;;5017610;28;20210;-77
2021/08/04 10:23:07;;;;;;;2.10;1.63;;;21.80;99.90;;;;;;5017963;28;20179;-76
2021/08/04 10:25:33;;;;;;;3.13;2.10;;;21.90;99.90;;;;;;5020090;28;20241;-79
2021/08/04 10:28:02;;;;;;;3.13;1.73;;;21.70;99.90;;;;;;5002772;28;20258;-79
2021/08/04 10:30:27;;;;;;;3.50;1.73;;;21.60;99.90;;;;;;5009231;28;20226;-80
2021/08/04 10:32:53;;;;;;;3.27;1.80;;;21.50;99.90;;;;;;5006505;28;20183;-80
2021/08/04 10:35:18;;;;;;;3.60;1.80;;;21.40;99.90;;;;;;5021665;28;20194;-79
2021/08/04 10:37:44;;;;;;;3.97;1.80;;;21.30;99.90;;;;;;5039119;28;20206;-80
2021/08/04 10:40:10;;;;;;;4.13;1.80;;;21.30;99.90;;;;;;5022204;28;20194;-79
2021/08/04 10:42:45;;;;;;;2.67;1.83;;;21.20;99.90;;;;;;5022204;28;20647;-80
2021/08/04 10:45:23;;;;;;;3.70;2.20;;;21.20;99.90;;;;;;5038019;28;20181;-80
2021/08/04 10:47:56;;;;;;;3.83;1.70;;;21.10;99.90;;;;;;5037907;28;20182;-80
2021/08/04 10:50:22;;;;;;;2.83;1.80;;;21.20;99.90;;;;;;5021234;28;20225;-80
2021/08/04 10:52:56;;;;;;;3.53;1.90;;;21.30;99.90;;;;;;5038866;28;20211;-80
2021/08/04 10:55:26;;;;;;;4.43;2.30;;;21.50;99.90;;;;;;5038810;28;20790;-79
2021/08/04 10:58:03;;;;;;;3.30;1.90;;;21.60;99.90;;;;;;5039225;28;20221;-79
2021/08/04 11:00:29;;;;;;;3.87;1.90;;;21.80;99.90;;;;;;5037986;28;20195;-79
2021/08/04 11:02:55;;;;;;;4.07;2.00;;;21.90;99.90;;;;;;5035609;28;20195;-78
2021/08/04 11:05:20;;;;;;;4.07;1.93;;;21.90;99.90;;;;;;5021565;28;20270;-79
2021/08/04 11:08:17;;;;;;;2.63;1.63;;;22.00;99.90;;;;;;5036275;28;20182;-79
2021/08/04 11:10:43;;;;;;;2.87;1.80;;;22.20;99.90;;;;;;5051304;28;20273;-79
2021/08/04 11:13:09;;;;;;;2.23;1.90;;;22.30;99.90;;;;;;5036795;28;20298;-79
2021/08/04 11:15:34;;;;;;;3.20;1.87;;;22.40;99.90;;;;;;5035076;28;20180;-77
2021/08/04 11:18:10;;;;;;;5.20;1.80;;;22.40;99.90;;;;;;5034250;28;20175;-77
2021/08/04 11:20:59;;;;;;;2.30;1.87;;;22.50;99.90;;;;;;5036834;28;20206;-78
2021/08/04 11:23:48;;;;;;;3.27;1.77;;;22.60;99.90;;;;;;5050660;28;20190;-77
2021/08/04 11:26:31;;;;;;;2.83;1.90;;;22.60;99.90;;;;;;5036875;28;20666;-77
2021/08/04 11:28:57;;;;;;;3.28;2.00;;;22.50;99.90;;;;;;5022195;28;20195;-78
2021/08/04 11:31:23;;;;;;;3.47;1.40;;;22.50;99.90;;;;;;5021160;28;20199;-78
2021/08/04 11:33:48;;;;;;;4.33;2.00;;;22.40;99.90;;;;;;5055595;28;20175;-78
2021/08/04 11:36:17;;;;;;;3.25;2.00;;;22.40;99.90;;;;;;5053411;28;20175;-76
2021/08/04 11:38:52;;;;;;;2.83;1.83;;;22.50;99.90;;;;;;5036830;28;20202;-77
2021/08/04 11:41:24;;;;;;;3.17;1.77;;;22.50;99.90;;;;;;5054309;28;20228;-77
2021/08/04 11:43:51;;;;;;;2.50;1.70;;;22.30;99.90;;;;;;5033711;28;20163;-74
2021/08/04 11:46:34;;;;;;;2.33;1.73;;;22.30;99.90;;;;;;4989892;28;20179;-74
2021/08/04 11:49:00;;;;;;;3.35;1.55;;;22.40;99.90;;;;;;5021134;28;20207;-74
2021/08/04 11:52:02;;;;;;;2.53;1.75;;;22.50;99.90;;;;;;5000148;28;20210;-74
2021/08/04 11:54:32;;;;;;;4.73;1.70;;;22.60;99.90;;;;;;4996473;28;20195;-75
2021/08/04 11:56:58;;;;;;;2.25;1.60;;;22.80;99.90;;;;;;4998597;28;20291;-76
2021/08/04 11:59:24;;;;;;;1.93;1.50;;;23.00;99.90;;;;;;5000807;28;20690;-78
2021/08/04 12:02:07;;;;;;;1.98;1.60;;;22.90;99.90;;;;;;5003079;28;20640;-76
2021/08/04 12:04:44;;;;;;;2.95;1.50;;;22.80;99.90;;;;;;4984225;28;20368;-76
2021/08/04 12:07:10;;;;;;;4.33;2.13;;;22.90;99.90;;;;;;5016792;28;20235;-76
2021/08/04 12:09:36;;;;;;;2.53;1.70;;;22.80;99.90;;;;;;5036681;28;20230;-76
2021/08/04 12:12:04;;;;;;;3.37;1.50;;;22.80;99.90;;;;;;5016120;28;20253;-76
2021/08/04 12:14:32;;;;;;;4.07;1.80;;;22.80;99.90;;;;;;5007168;28;20175;-76
2021/08/04 12:16:59;;;;;;;2.20;1.60;;;22.80;99.90;;;;;;5017379;28;20180;-76
2021/08/04 12:19:26;;;;;;;2.80;1.80;;;22.90;99.90;;;;;;5002098;28;20215;-76
2021/08/04 12:21:52;;;;;;;2.30;1.50;;;23.00;99.90;;;;;;5001355;28;20565;-77
2021/08/04 12:24:17;;;;;;;3.30;1.70;;;23.10;99.90;;;;;;4980679;28;20179;-76
2021/08/04 12:26:44;;;;;;;3.27;1.90;;;22.80;99.90;;;;;;4996194;28;20254;-77
2021/08/04 12:29:26;;;;;;;2.73;1.60;;;22.60;99.90;;;;;;4997294;28;20195;-75
2021/08/04 12:32:22;;;;;;;3.25;1.70;;;22.50;99.90;;;;;;5041318;28;20282;-77
2021/08/04 12:34:58;;;;;;;3.33;1.80;;;22.40;99.90;;;;;;5038188;28;20155;-79
2021/08/04 12:37:24;;;;;;;4.23;2.03;;;22.40;99.90;;;;;;5003866;28;20175;-78
2021/08/04 12:39:50;;;;;;;3.10;1.70;;;22.30;99.90;;;;;;5034723;28;20209;-77
2021/08/04 12:42:20;;;;;;;3.10;1.50;;;22.50;99.90;;;;;;5034451;28;20247;-77
2021/08/04 12:44:46;;;;;;;2.40;1.60;;;22.50;99.90;;;;;;5019107;28;20167;-77
2021/08/04 12:47:14;;;;;;;4.13;2.20;;;22.60;99.90;;;;;;5002288;28;20186;-77
2021/08/04 12:49:41;;;;;;;2.60;1.58;;;22.60;99.90;;;;;;5018300;28;20690;-77